Timberville, Virginia
Current Conditions -  °F | °C
As of 12:55 PM on Wednesday 28 Jan 2015 (Local Time) from K8W2 Reporting Station
Clear Clear  
Wind Chill: 27°   Ceiling: Unl
Heat Index: 33°   Visibility: 10mi
Dew Point:   Wind: 6mph
Humidity: 33%   Direction: 60°ENE
Pressure: 30.23"   Gusts: NA
Location:  38.64°N, 78.77°W
Report Text: K8W2 281755Z AUTO 06005KT 10SM CLR 01/M14 A3023 RMK AO1 T00051141 10006 21111
Loading
Personal Weather Stations






























Interactive Weather Map New forecast layout! Learn more

10-Day Weather Forecast

Advertisements
Track Severe Weather on mobile